Time;durP1;ratioP1;P1;durP2;ratioP2;P2;SDS_P1;SDS_P2;PMS_P1;PMS_P2;Temp;Humidity;BMP_temperature;BMP_pressure;BME280_temperature;BME280_humidity;BME280_pressure;Samples;Min_cycle;Max_cycle;Signal;HPM_P1;HPM_P2
2024/01/03 00:00:25;;;;;;;35.10;4.63;;;;;;;;;;5067082;28;20037;-87
2024/01/03 00:02:57;;;;;;;22.02;2.58;;;;;;;;;;5050394;28;20037;-86
2024/01/03 00:05:38;;;;;;;16.67;2.92;;;;;;;;;;5066422;28;20735;-87
2024/01/03 00:08:11;;;;;;;21.67;4.05;;;;;;;;;;5100366;28;20048;-87
2024/01/03 00:10:55;;;;;;;32.83;4.18;;;;;;;;;;5069511;28;20485;-87
2024/01/03 00:13:38;;;;;;;46.08;6.10;;;;;;;;;;5105281;28;20470;-87
2024/01/03 00:16:14;;;;;;;59.22;8.43;;;;;;;;;;5075650;28;20045;-88
2024/01/03 00:18:51;;;;;;;80.35;11.15;;;;;;;;;;5096129;27;20100;-87
2024/01/03 00:21:25;;;;;;;89.88;10.65;;;;;;;;;;5066794;28;20041;-86
2024/01/03 00:23:56;;;;;;;88.25;12.35;;;;;;;;;;5058012;28;20041;-86
2024/01/03 00:26:30;;;;;;;92.50;11.20;;;;;;;;;;5062592;27;20056;-87
2024/01/03 00:32:57;;;;;;;99.53;11.32;;;;;;;;;;4933153;28;20046;-88
2024/01/03 00:35:53;;;;;;;79.63;10.93;;;;;;;;;;4996546;28;20123;-87
2024/01/03 00:38:53;;;;;;;86.75;12.63;;;;;;;;;;5030637;28;20279;-87
2024/01/03 00:41:23;;;;;;;82.35;11.38;;;;;;;;;;5017756;28;20037;-87
2024/01/03 00:44:11;;;;;;;87.60;10.45;;;;;;;;;;5015680;28;20055;-88
2024/01/03 00:47:01;;;;;;;65.32;10.23;;;;;;;;;;5001364;28;20064;-87
2024/01/03 00:50:01;;;;;;;;;;;;;;;;;;;;;
2024/01/03 00:52:48;;;;;;;84.75;11.10;;;;;;;;;;5046851;28;20047;-88
2024/01/03 00:55:19;;;;;;;85.80;12.02;;;;;;;;;;5064438;28;20036;-87
2024/01/03 00:57:50;;;;;;;88.03;11.77;;;;;;;;;;5053332;28;20090;-87
2024/01/03 01:00:23;;;;;;;90.85;12.20;;;;;;;;;;5056313;27;20139;-87
2024/01/03 01:02:50;;;;;;;100.75;13.40;;;;;;;;;;5071659;28;20048;-87
2024/01/03 01:05:20;;;;;;;93.45;13.23;;;;;;;;;;5048609;28;20349;-87
2024/01/03 01:07:47;;;;;;;95.22;10.50;;;;;;;;;;5064056;28;20050;-87
2024/01/03 01:10:15;;;;;;;103.13;12.65;;;;;;;;;;5077446;27;20428;-87
2024/01/03 01:12:42;;;;;;;102.13;12.77;;;;;;;;;;5065559;28;20467;-87
2024/01/03 01:15:09;;;;;;;102.07;12.40;;;;;;;;;;5067322;28;20040;-87
2024/01/03 01:17:41;;;;;;;82.88;12.05;;;;;;;;;;5071366;28;20152;-87
2024/01/03 01:20:09;;;;;;;86.35;12.20;;;;;;;;;;5084334;28;20435;-87
2024/01/03 01:22:36;;;;;;;87.47;11.63;;;;;;;;;;5057132;28;20055;-87
2024/01/03 01:25:17;;;;;;;;;;;;;;;;;;;;;
2024/01/03 01:27:46;;;;;;;90.57;13.07;;;;;;;;;;5101364;28;20128;-88
2024/01/03 01:30:24;;;;;;;101.38;14.32;;;;;;;;;;5059990;28;20044;-87
2024/01/03 01:33:00;;;;;;;92.20;12.73;;;;;;;;;;5042581;28;20051;-87
2024/01/03 01:35:55;;;;;;;87.20;11.43;;;;;;;;;;5029805;28;20122;-88
2024/01/03 01:38:36;;;;;;;91.60;11.48;;;;;;;;;;5062862;28;20062;-88
2024/01/03 01:41:32;;;;;;;98.82;12.15;;;;;;;;;;5052140;28;20036;-87
2024/01/03 01:44:08;;;;;;;90.00;11.95;;;;;;;;;;5090618;28;20143;-87
2024/01/03 01:46:57;;;;;;;88.70;12.18;;;;;;;;;;5087524;27;20044;-87
2024/01/03 01:49:46;;;;;;;94.10;11.02;;;;;;;;;;5051733;28;20492;-87
2024/01/03 01:52:40;;;;;;;;;;;;;;;;;;;;;
2024/01/03 01:55:19;;;;;;;83.85;10.63;;;;;;;;;;5099960;27;20100;-88
2024/01/03 01:57:47;;;;;;;89.20;11.30;;;;;;;;;;5091696;28;20032;-87
2024/01/03 02:01:07;;;;;;;99.68;11.90;;;;;;;;;;5065318;27;20036;-87
2024/01/03 02:03:37;;;;;;;93.43;12.43;;;;;;;;;;5026741;28;20118;-87
2024/01/03 02:06:16;;;;;;;88.80;12.38;;;;;;;;;;5052603;28;20125;-87
2024/01/03 02:08:49;;;;;;;93.30;11.40;;;;;;;;;;5066569;28;20059;-87
2024/01/03 02:11:18;;;;;;;82.13;11.40;;;;;;;;;;5056528;28;20047;-87
2024/01/03 02:13:49;;;;;;;76.80;11.73;;;;;;;;;;5073936;28;20040;-87
2024/01/03 02:16:22;;;;;;;81.75;10.88;;;;;;;;;;5049267;28;20090;-87
2024/01/03 02:18:51;;;;;;;82.35;11.18;;;;;;;;;;5061418;28;20060;-87
2024/01/03 02:21:23;;;;;;;78.38;9.95;;;;;;;;;;5066053;28;20090;-87
2024/01/03 02:23:50;;;;;;;73.70;9.20;;;;;;;;;;5052501;28;20044;-87
2024/01/03 02:26:17;;;;;;;76.57;10.07;;;;;;;;;;5073942;28;20467;-87
2024/01/03 02:28:55;;;;;;;74.07;10.03;;;;;;;;;;5079030;28;20040;-87
2024/01/03 02:31:29;;;;;;;71.07;9.30;;;;;;;;;;5085973;28;20758;-87
2024/01/03 02:33:56;;;;;;;69.28;9.25;;;;;;;;;;5087114;28;20036;-87
2024/01/03 02:36:23;;;;;;;85.90;11.25;;;;;;;;;;5110254;27;20071;-87
2024/01/03 02:38:52;;;;;;;81.35;11.10;;;;;;;;;;5085946;28;20044;-87
2024/01/03 02:41:23;;;;;;;104.03;13.35;;;;;;;;;;5066882;27;20493;-87
2024/01/03 02:43:57;;;;;;;93.07;13.20;;;;;;;;;;5079387;27;20043;-87
2024/01/03 02:46:29;;;;;;;72.85;11.15;;;;;;;;;;5083756;27;20047;-87
2024/01/03 02:48:56;;;;;;;92.90;12.55;;;;;;;;;;5085210;28;20382;-87
2024/01/03 02:51:26;;;;;;;86.25;13.05;;;;;;;;;;5086045;27;20578;-87
2024/01/03 02:53:55;;;;;;;91.55;11.57;;;;;;;;;;5087055;28;20467;-87
2024/01/03 02:56:24;;;;;;;89.97;12.07;;;;;;;;;;5084975;27;20359;-87
2024/01/03 02:58:51;;;;;;;91.85;14.15;;;;;;;;;;5085442;28;20457;-87
2024/01/03 03:01:19;;;;;;;90.97;12.50;;;;;;;;;;5086628;28;20043;-87
2024/01/03 03:03:46;;;;;;;78.68;11.18;;;;;;;;;;5075560;28;20540;-87
2024/01/03 03:06:13;;;;;;;91.15;13.40;;;;;;;;;;5084739;28;20127;-86
2024/01/03 03:08:41;;;;;;;75.35;12.63;;;;;;;;;;5084812;28;20051;-87
2024/01/03 03:11:08;;;;;;;74.53;8.95;;;;;;;;;;5084317;27;20064;-87
2024/01/03 03:13:35;;;;;;;67.82;9.80;;;;;;;;;;5084834;28;20058;-87
2024/01/03 03:16:02;;;;;;;76.60;11.93;;;;;;;;;;5086525;28;20035;-87
2024/01/03 03:18:29;;;;;;;61.55;8.57;;;;;;;;;;5055465;28;20063;-87
2024/01/03 03:20:57;;;;;;;64.28;9.32;;;;;;;;;;5065392;28;20032;-87
2024/01/03 03:23:27;;;;;;;58.25;7.95;;;;;;;;;;5055203;28;20041;-87
2024/01/03 03:25:54;;;;;;;66.10;8.63;;;;;;;;;;5055276;28;20072;-87
2024/01/03 03:28:22;;;;;;;57.70;8.20;;;;;;;;;;5055437;28;20421;-87
2024/01/03 03:30:56;;;;;;;63.70;8.65;;;;;;;;;;5056197;28;20439;-88
2024/01/03 03:33:27;;;;;;;72.90;10.68;;;;;;;;;;5046802;28;20090;-87
2024/01/03 03:35:55;;;;;;;69.75;10.20;;;;;;;;;;5049125;28;20040;-87
2024/01/03 03:38:22;;;;;;;73.10;10.75;;;;;;;;;;5054778;28;20379;-87
2024/01/03 03:40:50;;;;;;;72.20;10.65;;;;;;;;;;5056198;28;20154;-87
2024/01/03 03:43:18;;;;;;;;;;;;;;;;;;5056010;28;20556;-87
2024/01/03 03:45:45;;;;;;;75.40;12.27;;;;;;;;;;5056094;28;19951;-87
2024/01/03 03:48:12;;;;;;;77.03;9.75;;;;;;;;;;5047205;28;20110;-87
2024/01/03 03:50:40;;;;;;;87.90;11.35;;;;;;;;;;5056072;28;20111;-87
2024/01/03 03:53:10;;;;;;;84.85;10.25;;;;;;;;;;5055143;28;20040;-87
2024/01/03 03:55:43;;;;;;;80.28;11.35;;;;;;;;;;5055727;28;20094;-87
2024/01/03 03:58:12;;;;;;;83.82;11.02;;;;;;;;;;5047070;28;20101;-87
2024/01/03 04:00:39;;;;;;;86.20;11.18;;;;;;;;;;5047386;28;20036;-88
2024/01/03 04:03:09;;;;;;;77.43;10.27;;;;;;;;;;5045879;28;20150;-87
2024/01/03 04:05:37;;;;;;;78.28;10.88;;;;;;;;;;5055688;28;20041;-87
2024/01/03 04:08:05;;;;;;;77.72;10.88;;;;;;;;;;5054798;28;20048;-86
2024/01/03 04:10:33;;;;;;;80.93;10.95;;;;;;;;;;5055295;28;20047;-87
2024/01/03 04:13:00;;;;;;;81.38;11.65;;;;;;;;;;5057138;28;20044;-87
2024/01/03 04:15:27;;;;;;;82.60;11.00;;;;;;;;;;5091374;28;20348;-86
2024/01/03 04:17:56;;;;;;;75.85;11.65;;;;;;;;;;5075131;28;20430;-86
2024/01/03 04:20:23;;;;;;;85.15;11.23;;;;;;;;;;5073906;28;20044;-86
2024/01/03 04:22:50;;;;;;;80.53;10.15;;;;;;;;;;5075528;28;20071;-87
2024/01/03 04:25:20;;;;;;;79.60;11.05;;;;;;;;;;5075805;28;20109;-87
2024/01/03 04:27:47;;;;;;;88.53;11.07;;;;;;;;;;5074634;28;20039;-87
2024/01/03 04:30:16;;;;;;;;;;;;;;;;;;5065848;28;20040;-87
2024/01/03 04:32:43;;;;;;;61.63;9.57;;;;;;;;;;5075065;28;19924;-86
2024/01/03 04:35:10;;;;;;;72.70;10.35;;;;;;;;;;5074075;28;20044;-87
2024/01/03 04:37:40;;;;;;;71.55;10.60;;;;;;;;;;5075340;28;20051;-87
2024/01/03 04:40:13;;;;;;;77.50;11.45;;;;;;;;;;5067846;28;20039;-88
2024/01/03 04:42:45;;;;;;;92.95;11.15;;;;;;;;;;5075533;28;20123;-87
2024/01/03 04:45:12;;;;;;;82.13;11.50;;;;;;;;;;5073411;28;20143;-87
2024/01/03 04:47:40;;;;;;;89.25;11.90;;;;;;;;;;5065321;28;20127;-87
2024/01/03 04:50:08;;;;;;;83.40;11.10;;;;;;;;;;5064909;28;20416;-86
2024/01/03 04:52:38;;;;;;;88.68;11.20;;;;;;;;;;5074190;28;20036;-87
2024/01/03 04:55:09;;;;;;;88.80;11.55;;;;;;;;;;5072997;28;20044;-86
2024/01/03 04:57:36;;;;;;;85.38;11.40;;;;;;;;;;5068132;28;20035;-88
2024/01/03 05:00:07;;;;;;;88.03;11.40;;;;;;;;;;5074463;28;20383;-87
2024/01/03 05:02:37;;;;;;;71.00;10.35;;;;;;;;;;5072481;28;20050;-87
2024/01/03 05:05:04;;;;;;;86.05;11.63;;;;;;;;;;5074335;28;20047;-87
2024/01/03 05:07:33;;;;;;;84.97;11.27;;;;;;;;;;5073792;28;20047;-87
2024/01/03 05:10:08;;;;;;;80.68;11.50;;;;;;;;;;5074332;28;20040;-87
2024/01/03 05:12:44;;;;;;;82.28;11.38;;;;;;;;;;5067705;28;20101;-87
2024/01/03 05:15:17;;;;;;;104.53;13.23;;;;;;;;;;5018596;28;20133;-87
2024/01/03 05:17:51;;;;;;;87.57;12.35;;;;;;;;;;5027463;28;20040;-88
2024/01/03 05:24:34;;;;;;;107.57;14.10;;;;;;;;;;4914389;28;20133;-88
2024/01/03 05:27:40;;;;;;;86.53;11.80;;;;;;;;;;4965360;28;20331;-88
2024/01/03 05:34:43;;;;;;;96.15;11.07;;;;;;;;;;4925599;28;20053;-88
2024/01/03 05:38:25;;;;;;;78.38;9.73;;;;;;;;;;4816927;29;20509;-88
2024/01/03 05:42:01;;;;;;;;;;;;;;;;;;;;;
2024/01/03 05:45:25;;;;;;;74.03;11.35;;;;;;;;;;4769371;29;20112;-88
2024/01/03 05:48:10;;;;;;;75.57;11.07;;;;;;;;;;4787630;29;20046;-88
2024/01/03 05:50:51;;;;;;;69.35;9.63;;;;;;;;;;4885599;29;20543;-87
2024/01/03 05:53:27;;;;;;;66.10;11.18;;;;;;;;;;4906132;29;20048;-86
2024/01/03 05:56:19;;;;;;;73.07;11.15;;;;;;;;;;4894927;29;20459;-87
2024/01/03 05:59:41;;;;;;;;;;;;;;;;;;;;;
2024/01/03 06:02:39;;;;;;;90.25;11.93;;;;;;;;;;4900642;28;20054;-88
2024/01/03 06:05:16;;;;;;;80.43;11.70;;;;;;;;;;4939005;29;20051;-88
2024/01/03 06:07:47;;;;;;;76.88;10.23;;;;;;;;;;4955326;28;20134;-87
2024/01/03 06:10:14;;;;;;;89.55;12.88;;;;;;;;;;4936455;28;20065;-86
2024/01/03 06:12:51;;;;;;;79.22;12.45;;;;;;;;;;4912615;28;20446;-88
2024/01/03 06:15:26;;;;;;;75.15;10.52;;;;;;;;;;5009363;28;20120;-86
2024/01/03 06:18:25;;;;;;;78.20;10.05;;;;;;;;;;5026882;28;20052;-89
2024/01/03 06:20:52;;;;;;;75.70;9.88;;;;;;;;;;5017290;28;20124;-85
2024/01/03 06:23:19;;;;;;;75.25;11.32;;;;;;;;;;5076213;28;20036;-85
2024/01/03 06:25:52;;;;;;;87.28;11.63;;;;;;;;;;5035452;28;20070;-88
2024/01/03 06:28:33;;;;;;;81.15;11.55;;;;;;;;;;5047559;28;20040;-88
2024/01/03 06:31:28;;;;;;;74.22;11.07;;;;;;;;;;5038767;28;20522;-90
2024/01/03 06:34:30;;;;;;;82.00;12.27;;;;;;;;;;5050066;28;20119;-86
2024/01/03 06:37:00;;;;;;;82.78;11.80;;;;;;;;;;5074139;28;20973;-86
2024/01/03 06:39:41;;;;;;;85.18;12.27;;;;;;;;;;5056641;28;20126;-87
2024/01/03 06:42:18;;;;;;;87.28;12.13;;;;;;;;;;5038671;28;20058;-88
2024/01/03 06:45:40;;;;;;;93.45;12.25;;;;;;;;;;5061954;27;20530;-87
2024/01/03 06:48:43;;;;;;;81.10;11.73;;;;;;;;;;5034614;28;20478;-87
2024/01/03 06:51:29;;;;;;;79.25;13.75;;;;;;;;;;5081062;27;20049;-87
2024/01/03 06:54:03;;;;;;;79.18;13.27;;;;;;;;;;5089858;27;20423;-88
2024/01/03 06:56:43;;;;;;;83.97;13.05;;;;;;;;;;5086516;28;20059;-85
2024/01/03 06:59:12;;;;;;;77.10;11.98;;;;;;;;;;5092006;27;20386;-85
2024/01/03 07:01:38;;;;;;;72.57;8.80;;;;;;;;;;5100477;27;20401;-84
2024/01/03 07:04:05;;;;;;;67.03;10.05;;;;;;;;;;5099671;27;20046;-84
2024/01/03 07:06:32;;;;;;;80.97;10.77;;;;;;;;;;5117380;27;20057;-85
2024/01/03 07:08:59;;;;;;;81.00;11.38;;;;;;;;;;5096893;27;20553;-84
2024/01/03 07:11:26;;;;;;;74.05;10.32;;;;;;;;;;5096496;28;20036;-85
2024/01/03 07:13:53;;;;;;;83.32;11.50;;;;;;;;;;5096369;28;20044;-85
2024/01/03 07:16:20;;;;;;;64.88;9.88;;;;;;;;;;5096319;27;20043;-86
2024/01/03 07:18:47;;;;;;;77.80;11.50;;;;;;;;;;5096870;28;20040;-86
2024/01/03 07:21:14;;;;;;;81.88;12.13;;;;;;;;;;5096288;27;20036;-85
2024/01/03 07:23:41;;;;;;;88.85;13.63;;;;;;;;;;5092678;28;20044;-85
2024/01/03 07:26:08;;;;;;;79.45;10.57;;;;;;;;;;5073537;28;20050;-85
2024/01/03 07:28:35;;;;;;;76.30;10.73;;;;;;;;;;5079725;28;20089;-86
2024/01/03 07:31:02;;;;;;;68.60;10.13;;;;;;;;;;5084951;28;20039;-86
2024/01/03 07:33:32;;;;;;;83.72;12.20;;;;;;;;;;5091918;27;20146;-87
2024/01/03 07:35:59;;;;;;;77.32;10.35;;;;;;;;;;5090362;27;20047;-87
2024/01/03 07:38:31;;;;;;;75.38;11.98;;;;;;;;;;5098656;27;20070;-87
2024/01/03 07:40:59;;;;;;;69.68;10.20;;;;;;;;;;5099598;27;20055;-87
2024/01/03 07:43:27;;;;;;;62.53;9.18;;;;;;;;;;5098064;27;20046;-87
2024/01/03 07:46:17;;;;;;;64.60;9.57;;;;;;;;;;5083146;27;20039;-87
2024/01/03 07:48:44;;;;;;;68.38;8.38;;;;;;;;;;5090921;27;20118;-87
2024/01/03 07:51:14;;;;;;;59.35;7.93;;;;;;;;;;5098799;27;20039;-87
2024/01/03 07:53:41;;;;;;;46.25;7.10;;;;;;;;;;5098182;28;20040;-87
2024/01/03 07:56:10;;;;;;;54.03;7.43;;;;;;;;;;5085533;27;20160;-86
2024/01/03 07:58:37;;;;;;;57.00;8.23;;;;;;;;;;5098877;27;20092;-87
2024/01/03 08:01:14;;;;;;;56.53;7.55;;;;;;;;;;5098600;27;20035;-87
2024/01/03 08:03:43;;;;;;;67.10;8.25;;;;;;;;;;5089981;27;20035;-87
2024/01/03 08:06:21;;;;;;;79.60;10.02;;;;;;;;;;5098760;27;20035;-87
2024/01/03 08:08:50;;;;;;;73.47;9.10;;;;;;;;;;5098289;27;20057;-87
2024/01/03 08:11:20;;;;;;;59.35;7.65;;;;;;;;;;5097790;27;20043;-86
2024/01/03 08:13:52;;;;;;;60.70;8.02;;;;;;;;;;5098841;27;20046;-87
2024/01/03 08:16:24;;;;;;;58.75;7.10;;;;;;;;;;5097784;27;20543;-88
2024/01/03 08:19:05;;;;;;;54.42;6.88;;;;;;;;;;5089223;27;20112;-88
2024/01/03 08:21:43;;;;;;;69.10;7.70;;;;;;;;;;5089689;27;20043;-87
2024/01/03 08:24:13;;;;;;;41.00;5.82;;;;;;;;;;5089532;28;20136;-87
2024/01/03 08:26:47;;;;;;;54.90;7.22;;;;;;;;;;5084962;28;20097;-87
2024/01/03 08:29:15;;;;;;;51.03;7.35;;;;;;;;;;5077481;28;20055;-87
2024/01/03 08:31:55;;;;;;;43.70;6.72;;;;;;;;;;5096169;28;20093;-87
2024/01/03 08:34:25;;;;;;;44.83;6.90;;;;;;;;;;5067731;28;20057;-87
2024/01/03 08:36:54;;;;;;;44.10;6.32;;;;;;;;;;5094759;28;20122;-87
2024/01/03 08:39:31;;;;;;;43.08;6.90;;;;;;;;;;5076919;28;20047;-87
2024/01/03 08:42:02;;;;;;;50.42;7.13;;;;;;;;;;5078357;28;20090;-87
2024/01/03 08:44:32;;;;;;;40.17;6.72;;;;;;;;;;5051443;28;20046;-87
2024/01/03 08:47:02;;;;;;;46.78;7.05;;;;;;;;;;5056263;28;20036;-87
2024/01/03 08:49:29;;;;;;;58.92;6.60;;;;;;;;;;5076667;28;20111;-87
2024/01/03 08:52:01;;;;;;;38.50;5.57;;;;;;;;;;5078274;28;20035;-87
2024/01/03 08:54:32;;;;;;;56.92;6.55;;;;;;;;;;5077382;28;20047;-87
2024/01/03 08:56:59;;;;;;;48.00;6.15;;;;;;;;;;5057629;28;20058;-87
2024/01/03 08:59:26;;;;;;;35.22;5.20;;;;;;;;;;5076761;28;20039;-87
2024/01/03 09:01:56;;;;;;;50.92;6.38;;;;;;;;;;5077892;28;20039;-87
2024/01/03 09:04:23;;;;;;;41.50;5.78;;;;;;;;;;5076098;28;20047;-87
2024/01/03 09:06:53;;;;;;;40.38;5.80;;;;;;;;;;5077598;28;20039;-87
2024/01/03 09:09:20;;;;;;;38.38;5.63;;;;;;;;;;5077092;28;20035;-87
2024/01/03 09:11:52;;;;;;;37.08;6.28;;;;;;;;;;5077580;28;20040;-87
2024/01/03 09:14:19;;;;;;;52.28;6.47;;;;;;;;;;5076748;28;20036;-86
2024/01/03 09:16:48;;;;;;;49.60;7.07;;;;;;;;;;5077456;28;20286;-87
2024/01/03 09:19:20;;;;;;;57.00;7.40;;;;;;;;;;5039852;28;20047;-87
2024/01/03 09:21:49;;;;;;;61.80;6.55;;;;;;;;;;5061674;28;20047;-87
2024/01/03 09:24:18;;;;;;;54.92;7.75;;;;;;;;;;5075618;28;20138;-87
2024/01/03 09:26:47;;;;;;;59.65;7.25;;;;;;;;;;5077731;28;20386;-87
2024/01/03 09:29:14;;;;;;;54.15;7.13;;;;;;;;;;5077129;28;20062;-87
2024/01/03 09:31:44;;;;;;;46.90;6.53;;;;;;;;;;5092282;28;20047;-87
2024/01/03 09:34:12;;;;;;;60.42;7.53;;;;;;;;;;5097176;28;20039;-87
2024/01/03 09:36:39;;;;;;;44.70;6.78;;;;;;;;;;5110870;27;20461;-87
2024/01/03 09:39:08;;;;;;;48.05;6.25;;;;;;;;;;5117825;27;20038;-87
2024/01/03 09:41:37;;;;;;;40.03;5.97;;;;;;;;;;5124105;27;20561;-87
2024/01/03 09:44:05;;;;;;;39.22;6.30;;;;;;;;;;5128992;27;20043;-86
2024/01/03 09:46:37;;;;;;;20.42;2.35;;;;;;;;;;5117047;27;20047;-87
2024/01/03 09:49:07;;;;;;;18.90;2.58;;;;;;;;;;5118280;27;20038;-87
2024/01/03 09:51:34;;;;;;;12.40;1.77;;;;;;;;;;5103323;28;20051;-87
2024/01/03 09:54:05;;;;;;;18.02;2.42;;;;;;;;;;5092494;28;20043;-87
2024/01/03 09:57:01;;;;;;;21.35;2.75;;;;;;;;;;5070321;28;20039;-88
2024/01/03 09:59:40;;;;;;;20.35;2.45;;;;;;;;;;5110012;27;20043;-87
2024/01/03 10:02:40;;;;;;;29.85;3.35;;;;;;;;;;5083768;28;20088;-88
2024/01/03 10:06:13;;;;;;;35.45;3.83;;;;;;;;;;4993105;28;20044;-88
2024/01/03 10:09:17;;;;;;;29.00;3.70;;;;;;;;;;5020942;28;20037;-87
2024/01/03 10:11:56;;;;;;;40.08;5.15;;;;;;;;;;5026442;28;20032;-87
2024/01/03 10:14:38;;;;;;;35.28;4.25;;;;;;;;;;5015421;28;20083;-87
2024/01/03 10:17:47;;;;;;;34.45;4.22;;;;;;;;;;4991313;28;20450;-87
2024/01/03 10:20:59;;;;;;;;;;;;;;;;;;;;;
2024/01/03 10:24:35;;;;;;;41.75;4.78;;;;;;;;;;5008412;28;20045;-88
2024/01/03 10:31:17;;;;;;;;;;;;;;;;;;;;;
2024/01/03 10:34:28;;;;;;;59.28;6.28;;;;;;;;;;4940737;28;20050;-88
2024/01/03 10:42:09;;;;;;;;;;;;;;;;;;;;;
2024/01/03 10:48:58;;;;;;;;;;;;;;;;;;;;;
2024/01/03 10:52:08;;;;;;;34.50;4.20;;;;;;;;;;4850791;29;20089;-88
2024/01/03 10:55:24;;;;;;;33.03;3.85;;;;;;;;;;4916930;28;20062;-87
2024/01/03 10:58:20;;;;;;;43.75;4.68;;;;;;;;;;4918263;28;20053;-88
2024/01/03 11:01:36;;;;;;;40.60;4.78;;;;;;;;;;4911083;29;20119;-87
2024/01/03 11:05:06;;;;;;;45.50;5.82;;;;;;;;;;4902181;28;20585;-87
2024/01/03 11:07:58;;;;;;;52.25;5.30;;;;;;;;;;4941985;28;20038;-88
2024/01/03 11:11:14;;;;;;;;;;;;;;;;;;;;;
2024/01/03 11:14:37;;;;;;;;;;;;;;;;;;;;;
2024/01/03 11:21:49;;;;;;;39.83;5.85;;;;;;;;;;4820616;29;20122;-88
2024/01/03 11:25:39;;;;;;;44.22;5.97;;;;;;;;;;4782860;29;20579;-88
2024/01/03 11:28:52;;;;;;;41.70;5.05;;;;;;;;;;4839275;29;20412;-88
2024/01/03 11:32:40;;;;;;;38.17;5.80;;;;;;;;;;4889951;29;20070;-87
2024/01/03 11:36:03;;;;;;;48.80;5.97;;;;;;;;;;4906093;29;20047;-88
2024/01/03 11:39:53;;;;;;;;;;;;;;;;;;;;;
2024/01/03 11:47:21;;;;;;;;;;;;;;;;;;;;;
2024/01/03 11:49:49;;;;;;;54.60;6.10;;;;;;;;;;4848563;29;20052;-88
2024/01/03 11:52:23;;;;;;;42.88;5.70;;;;;;;;;;4855791;29;20210;-89
2024/01/03 11:59:03;;;;;;;;;;;;;;;;;;;;;
2024/01/03 12:02:00;;;;;;;48.53;7.65;;;;;;;;;;4919889;29;20067;-88
2024/01/03 12:05:00;;;;;;;44.30;6.85;;;;;;;;;;4915748;28;20391;-88
2024/01/03 12:08:02;;;;;;;48.47;7.18;;;;;;;;;;4952752;28;20041;-88
2024/01/03 12:10:48;;;;;;;48.00;7.20;;;;;;;;;;4989553;28;20038;-86
2024/01/03 12:13:15;;;;;;;44.17;6.60;;;;;;;;;;4997539;28;20072;-84
2024/01/03 12:15:41;;;;;;;44.45;6.68;;;;;;;;;;5014250;28;20111;-86
2024/01/03 12:18:21;;;;;;;52.10;6.70;;;;;;;;;;4998606;28;20061;-86
2024/01/03 12:20:51;;;;;;;44.97;6.72;;;;;;;;;;5014218;28;20089;-85
2024/01/03 12:23:19;;;;;;;44.83;6.28;;;;;;;;;;5035110;28;20094;-84
2024/01/03 12:25:46;;;;;;;57.97;6.28;;;;;;;;;;5104069;27;20031;-86
2024/01/03 12:28:22;;;;;;;47.70;6.65;;;;;;;;;;5093514;28;20049;-85
2024/01/03 12:30:50;;;;;;;44.78;6.20;;;;;;;;;;5092253;27;20088;-86
2024/01/03 12:33:18;;;;;;;46.03;7.43;;;;;;;;;;5082995;28;20044;-86
2024/01/03 12:35:51;;;;;;;53.60;7.22;;;;;;;;;;5095965;27;20449;-87
2024/01/03 12:38:22;;;;;;;51.60;6.57;;;;;;;;;;5092967;27;20040;-86
2024/01/03 12:40:52;;;;;;;47.70;6.47;;;;;;;;;;5096518;27;20041;-86
2024/01/03 12:43:19;;;;;;;43.00;6.32;;;;;;;;;;5088835;27;20036;-86
2024/01/03 12:45:47;;;;;;;52.42;7.45;;;;;;;;;;5104051;27;20081;-86
2024/01/03 12:48:14;;;;;;;62.65;9.07;;;;;;;;;;5107611;27;20083;-86
2024/01/03 12:50:42;;;;;;;53.40;7.07;;;;;;;;;;5118007;27;20049;-86
2024/01/03 12:53:09;;;;;;;53.67;6.68;;;;;;;;;;5111539;27;20043;-85
2024/01/03 12:55:36;;;;;;;52.35;7.53;;;;;;;;;;5104509;27;20047;-85
2024/01/03 12:58:03;;;;;;;58.53;7.57;;;;;;;;;;5108690;27;20050;-85
2024/01/03 13:00:30;;;;;;;36.28;6.38;;;;;;;;;;5099378;27;20039;-86
2024/01/03 13:02:57;;;;;;;48.67;6.53;;;;;;;;;;5108338;27;20035;-86
2024/01/03 13:05:24;;;;;;;53.10;8.00;;;;;;;;;;5107135;27;20035;-86
2024/01/03 13:07:50;;;;;;;47.70;6.53;;;;;;;;;;5106105;27;20052;-86
2024/01/03 13:10:20;;;;;;;53.42;6.53;;;;;;;;;;5104961;27;20046;-86
2024/01/03 13:12:49;;;;;;;53.70;7.90;;;;;;;;;;5108754;27;20403;-86
2024/01/03 13:15:16;;;;;;;57.65;7.43;;;;;;;;;;5107110;27;20030;-86
2024/01/03 13:17:44;;;;;;;63.25;8.10;;;;;;;;;;5107347;27;20043;-87
2024/01/03 13:20:13;;;;;;;45.38;7.28;;;;;;;;;;5114630;27;20370;-87
2024/01/03 13:22:40;;;;;;;43.80;8.15;;;;;;;;;;5118667;27;20039;-87
2024/01/03 13:25:07;;;;;;;67.75;7.93;;;;;;;;;;5097071;28;20150;-86
2024/01/03 13:27:34;;;;;;;49.47;6.70;;;;;;;;;;5077236;28;20130;-86
2024/01/03 13:30:04;;;;;;;39.03;6.85;;;;;;;;;;5092471;27;20047;-87
2024/01/03 13:32:32;;;;;;;37.90;6.20;;;;;;;;;;5106393;27;20508;-87
2024/01/03 13:35:00;;;;;;;46.58;6.55;;;;;;;;;;5107453;27;20047;-87
2024/01/03 13:37:27;;;;;;;50.97;7.57;;;;;;;;;;5097927;28;20046;-87
2024/01/03 13:39:54;;;;;;;49.17;6.57;;;;;;;;;;5095960;28;20042;-87
2024/01/03 13:42:22;;;;;;;47.78;6.50;;;;;;;;;;5094833;28;20067;-86
2024/01/03 13:44:58;;;;;;;42.47;6.05;;;;;;;;;;5089149;27;20035;-87
2024/01/03 13:47:25;;;;;;;40.60;6.05;;;;;;;;;;5119614;27;20049;-87
2024/01/03 13:49:52;;;;;;;39.13;6.45;;;;;;;;;;5121190;27;20031;-87
2024/01/03 13:52:19;;;;;;;42.70;6.13;;;;;;;;;;5121793;27;20066;-86
2024/01/03 13:54:46;;;;;;;34.17;6.30;;;;;;;;;;5120753;27;20035;-87
2024/01/03 13:57:13;;;;;;;38.45;6.15;;;;;;;;;;5102501;27;20071;-86
2024/01/03 13:59:40;;;;;;;38.15;6.00;;;;;;;;;;5099427;27;20422;-87
2024/01/03 14:02:07;;;;;;;41.83;6.20;;;;;;;;;;5099137;27;20069;-87
2024/01/03 14:04:37;;;;;;;46.95;6.80;;;;;;;;;;5100026;27;20039;-86
2024/01/03 14:07:04;;;;;;;39.97;6.45;;;;;;;;;;5098975;27;20088;-85
2024/01/03 14:09:31;;;;;;;49.97;7.20;;;;;;;;;;5096220;28;20105;-87
2024/01/03 14:11:58;;;;;;;43.88;6.65;;;;;;;;;;5080791;28;20036;-86
2024/01/03 14:14:26;;;;;;;42.97;6.65;;;;;;;;;;5080105;28;20043;-86
2024/01/03 14:16:54;;;;;;;44.85;6.07;;;;;;;;;;5080936;28;20089;-86
2024/01/03 14:19:21;;;;;;;48.55;6.88;;;;;;;;;;5080473;28;20067;-87
2024/01/03 14:21:49;;;;;;;40.03;6.78;;;;;;;;;;5080974;28;20039;-86
2024/01/03 14:24:17;;;;;;;25.63;4.45;;;;;;;;;;5088881;27;20054;-87
2024/01/03 14:26:44;;;;;;;22.42;3.03;;;;;;;;;;5101070;27;20039;-87
2024/01/03 14:29:11;;;;;;;17.33;3.05;;;;;;;;;;5100419;27;20067;-87
2024/01/03 14:31:38;;;;;;;26.15;4.05;;;;;;;;;;5101227;27;20039;-87
2024/01/03 14:34:05;;;;;;;29.63;3.90;;;;;;;;;;5099995;27;20039;-85
2024/01/03 14:36:32;;;;;;;33.97;4.53;;;;;;;;;;5101088;27;20046;-86
2024/01/03 14:39:06;;;;;;;35.20;4.82;;;;;;;;;;5117789;27;20055;-86
2024/01/03 14:41:36;;;;;;;38.35;4.65;;;;;;;;;;5100208;27;20039;-87
2024/01/03 14:44:09;;;;;;;42.40;6.18;;;;;;;;;;5101122;27;20047;-86
2024/01/03 14:46:37;;;;;;;41.70;5.50;;;;;;;;;;5100215;27;20337;-86
2024/01/03 14:49:04;;;;;;;51.10;7.28;;;;;;;;;;5100463;27;20062;-86
2024/01/03 14:51:32;;;;;;;66.07;7.30;;;;;;;;;;5100798;27;20363;-87
2024/01/03 14:53:59;;;;;;;50.25;7.00;;;;;;;;;;5100643;27;20126;-86
2024/01/03 14:56:27;;;;;;;48.47;7.50;;;;;;;;;;5100198;27;20338;-86
2024/01/03 14:58:56;;;;;;;56.83;7.53;;;;;;;;;;5118246;27;20088;-87
2024/01/03 15:01:23;;;;;;;53.70;6.38;;;;;;;;;;5098563;27;21178;-86
2024/01/03 15:03:50;;;;;;;42.72;7.00;;;;;;;;;;5096343;27;20088;-87
2024/01/03 15:06:18;;;;;;;57.85;8.25;;;;;;;;;;5099133;27;20036;-87
2024/01/03 15:08:48;;;;;;;53.25;6.97;;;;;;;;;;5097618;27;20035;-87
2024/01/03 15:11:15;;;;;;;50.05;7.28;;;;;;;;;;5098809;27;20096;-86
2024/01/03 15:13:44;;;;;;;53.00;6.63;;;;;;;;;;5116040;27;20043;-87
2024/01/03 15:16:11;;;;;;;59.42;8.75;;;;;;;;;;5098981;27;20031;-86
2024/01/03 15:18:38;;;;;;;60.20;8.30;;;;;;;;;;5098995;27;20039;-86
2024/01/03 15:21:05;;;;;;;60.15;8.48;;;;;;;;;;5100753;27;20051;-86
2024/01/03 15:23:32;;;;;;;70.97;8.43;;;;;;;;;;5100558;27;20047;-87
2024/01/03 15:26:00;;;;;;;62.08;8.20;;;;;;;;;;5100291;27;20039;-86
2024/01/03 15:28:27;;;;;;;52.65;7.05;;;;;;;;;;5100076;27;20035;-87
2024/01/03 15:30:54;;;;;;;59.72;7.35;;;;;;;;;;5100650;27;20035;-87
2024/01/03 15:33:24;;;;;;;47.63;7.32;;;;;;;;;;5099598;27;20038;-87
2024/01/03 15:35:51;;;;;;;50.50;7.05;;;;;;;;;;5100621;27;20039;-87
2024/01/03 15:38:23;;;;;;;53.78;6.60;;;;;;;;;;5099691;27;20035;-87
2024/01/03 15:40:52;;;;;;;47.38;7.93;;;;;;;;;;5101018;27;20039;-87
2024/01/03 15:43:19;;;;;;;44.75;6.72;;;;;;;;;;5088722;27;20038;-87
2024/01/03 15:45:49;;;;;;;45.10;5.95;;;;;;;;;;5085891;28;20470;-87
2024/01/03 15:48:17;;;;;;;44.58;6.15;;;;;;;;;;5070859;28;20044;-87
2024/01/03 15:50:46;;;;;;;51.13;7.25;;;;;;;;;;5081051;28;20040;-87
2024/01/03 15:53:13;;;;;;;47.92;5.72;;;;;;;;;;5053185;28;20503;-88
2024/01/03 15:55:47;;;;;;;46.60;6.72;;;;;;;;;;5080413;28;20035;-87
2024/01/03 15:58:15;;;;;;;52.05;6.63;;;;;;;;;;5079863;28;20049;-87
2024/01/03 16:00:43;;;;;;;51.65;7.88;;;;;;;;;;5083558;27;20043;-88
2024/01/03 16:03:12;;;;;;;60.70;7.68;;;;;;;;;;5098776;27;20043;-87
2024/01/03 16:05:41;;;;;;;50.97;7.20;;;;;;;;;;5100050;27;20041;-87